ICE113 BIKF-BGGH
Flight info
| Callsign | ICE113 |
|---|---|
| Flight time | N/A |
| Altitude | 380000 |
| Route | M078F380 SORIR2D SORIR DCT SOSIT UT593 DA Y47 BAMAM DCT GH DCT |
| Aircraft | B38M/M-SDE1FGHILORVWXY/HB1 |
Departure
| Time | N/A |
|---|---|
| Airport | Keflavik International Airport (BIKF) |
Arrival
| Time | 2026-04-21 20:56 |
|---|---|
| Airport | Nuuk International Airport (BGGH) |
| Time | Latitude | Longitude | Altitude | Speed | Heading |
|---|---|---|---|---|---|
| 2026-04-21 19:10 | 64.58406 | -26.70369 | 33684 ft | 420 kts | 282° |
| 2026-04-21 19:10 | 64.58952 | -26.77023 | 33683 ft | 417 kts | 282° |
| 2026-04-21 19:11 | 64.60024 | -26.90191 | 33682 ft | 416 kts | 282° |
| 2026-04-21 19:11 | 64.61092 | -27.03456 | 33684 ft | 416 kts | 282° |
| 2026-04-21 19:12 | 64.62147 | -27.16722 | 33670 ft | 416 kts | 282° |
| 2026-04-21 19:12 | 64.63189 | -27.30009 | 33678 ft | 416 kts | 282° |
| 2026-04-21 19:13 | 64.64220 | -27.43294 | 33668 ft | 416 kts | 282° |
| 2026-04-21 19:13 | 64.65241 | -27.56615 | 33668 ft | 416 kts | 282° |
| 2026-04-21 19:14 | 64.66246 | -27.69904 | 33663 ft | 412 kts | 281° |
| 2026-04-21 19:14 | 64.67229 | -27.83060 | 33662 ft | 412 kts | 281° |
| 2026-04-21 19:15 | 64.68195 | -27.96151 | 33659 ft | 412 kts | 280° |
| 2026-04-21 19:15 | 64.69160 | -28.09396 | 33659 ft | 412 kts | 280° |
| 2026-04-21 19:16 | 64.70107 | -28.22579 | 33666 ft | 409 kts | 281° |
| 2026-04-21 19:16 | 64.71044 | -28.35766 | 33661 ft | 412 kts | 281° |
| 2026-04-21 19:17 | 64.72429 | -28.55621 | 33665 ft | 411 kts | 280° |
| 2026-04-21 19:17 | 64.73334 | -28.68800 | 33662 ft | 410 kts | 280° |
| 2026-04-21 19:18 | 64.74224 | -28.81961 | 33665 ft | 409 kts | 279° |
| 2026-04-21 19:18 | 64.75102 | -28.95112 | 33650 ft | 409 kts | 278° |
| 2026-04-21 19:19 | 64.75966 | -29.08247 | 33651 ft | 407 kts | 278° |
| 2026-04-21 19:19 | 64.76817 | -29.21348 | 33655 ft | 406 kts | 278° |
| 2026-04-21 19:20 | 64.77655 | -29.34466 | 33649 ft | 406 kts | 278° |
| 2026-04-21 19:20 | 64.78480 | -29.47543 | 33657 ft | 409 kts | 277° |
| 2026-04-21 19:21 | 64.79303 | -29.60704 | 33660 ft | 407 kts | 277° |
| 2026-04-21 19:21 | 64.80110 | -29.73809 | 33655 ft | 406 kts | 277° |
| 2026-04-21 19:22 | 64.80910 | -29.86958 | 33649 ft | 407 kts | 277° |
| 2026-04-21 19:22 | 64.81737 | -30.00114 | 33644 ft | 407 kts | 282° |
| 2026-04-21 19:23 | 64.83147 | -30.13018 | 33652 ft | 408 kts | 282° |
| 2026-04-21 19:23 | 64.84491 | -30.25949 | 33647 ft | 407 kts | 282° |
| 2026-04-21 19:24 | 64.85813 | -30.38920 | 33645 ft | 408 kts | 282° |
| 2026-04-21 19:24 | 64.87123 | -30.51911 | 33647 ft | 408 kts | 282° |
| 2026-04-21 19:25 | 64.88422 | -30.64923 | 33643 ft | 408 kts | 282° |
| 2026-04-21 19:25 | 64.89706 | -30.77909 | 33648 ft | 407 kts | 282° |
| 2026-04-21 19:26 | 64.90980 | -30.90922 | 33646 ft | 406 kts | 281° |
| 2026-04-21 19:26 | 64.92239 | -31.03909 | 33646 ft | 406 kts | 281° |
| 2026-04-21 19:27 | 64.93488 | -31.16921 | 33656 ft | 406 kts | 281° |
| 2026-04-21 19:27 | 64.94723 | -31.29909 | 33640 ft | 405 kts | 280° |
| 2026-04-21 19:28 | 64.95944 | -31.42892 | 33637 ft | 404 kts | 280° |
| 2026-04-21 19:28 | 64.97143 | -31.55770 | 33638 ft | 404 kts | 280° |
| 2026-04-21 19:29 | 64.98341 | -31.68761 | 33638 ft | 404 kts | 280° |
| 2026-04-21 19:29 | 64.99528 | -31.81772 | 33636 ft | 404 kts | 279° |
| 2026-04-21 19:30 | 65.00703 | -31.94786 | 33643 ft | 404 kts | 279° |
| 2026-04-21 19:30 | 65.01863 | -32.07777 | 33636 ft | 403 kts | 279° |
| 2026-04-21 19:31 | 65.03010 | -32.20750 | 33632 ft | 402 kts | 279° |
| 2026-04-21 19:31 | 65.04137 | -32.33639 | 33654 ft | 402 kts | 278° |
| 2026-04-21 19:32 | 65.05261 | -32.46639 | 33632 ft | 403 kts | 278° |
| 2026-04-21 19:32 | 65.06375 | -32.59656 | 33629 ft | 403 kts | 278° |
| 2026-04-21 19:33 | 65.07475 | -32.72656 | 33625 ft | 402 kts | 278° |
| 2026-04-21 19:33 | 65.08566 | -32.85687 | 33626 ft | 402 kts | 278° |
| 2026-04-21 19:34 | 65.09638 | -32.98649 | 33622 ft | 402 kts | 278° |
| 2026-04-21 19:34 | 65.10706 | -33.11693 | 33623 ft | 402 kts | 278° |
| 2026-04-21 19:35 | 65.12283 | -33.31251 | 33625 ft | 402 kts | 277° |
| 2026-04-21 19:36 | 65.13321 | -33.44311 | 33620 ft | 402 kts | 277° |
| 2026-04-21 19:36 | 65.14350 | -33.57409 | 33622 ft | 404 kts | 278° |
| 2026-04-21 19:37 | 65.15370 | -33.70549 | 33621 ft | 404 kts | 277° |
| 2026-04-21 19:37 | 65.16380 | -33.83721 | 33618 ft | 404 kts | 277° |
| 2026-04-21 19:38 | 65.17371 | -33.96795 | 33611 ft | 404 kts | 277° |
| 2026-04-21 19:38 | 65.18192 | -34.07752 | 33616 ft | 404 kts | 277° |
| 2026-04-21 19:39 | 65.19326 | -34.23094 | 33619 ft | 404 kts | 277° |
| 2026-04-21 19:39 | 65.20289 | -34.36287 | 33617 ft | 404 kts | 277° |
| 2026-04-21 19:40 | 65.21241 | -34.49504 | 33612 ft | 404 kts | 277° |
| 2026-04-21 19:40 | 65.22181 | -34.62729 | 33626 ft | 405 kts | 278° |
| 2026-04-21 19:41 | 65.23114 | -34.76002 | 33613 ft | 407 kts | 278° |
| 2026-04-21 19:41 | 65.24040 | -34.89311 | 33604 ft | 407 kts | 278° |
| 2026-04-21 19:42 | 65.24958 | -35.02652 | 33606 ft | 407 kts | 278° |
| 2026-04-21 19:42 | 65.25862 | -35.15964 | 33605 ft | 407 kts | 278° |
| 2026-04-21 19:43 | 65.26870 | -35.29274 | 33590 ft | 407 kts | 287° |
| 2026-04-21 19:43 | 65.28967 | -35.41780 | 33583 ft | 408 kts | 290° |
| 2026-04-21 19:44 | 65.31043 | -35.54479 | 33606 ft | 410 kts | 291° |
| 2026-04-21 19:44 | 65.33109 | -35.67179 | 33610 ft | 410 kts | 292° |
| 2026-04-21 19:45 | 65.35167 | -35.79907 | 33603 ft | 410 kts | 292° |
| 2026-04-21 19:45 | 65.36872 | -35.90517 | 33606 ft | 410 kts | 292° |
| 2026-04-21 19:46 | 65.38910 | -36.03285 | 33598 ft | 410 kts | 292° |
| 2026-04-21 19:46 | 65.40937 | -36.16067 | 33604 ft | 410 kts | 292° |
| 2026-04-21 19:47 | 65.42951 | -36.28855 | 33600 ft | 409 kts | 292° |
| 2026-04-21 19:47 | 65.44944 | -36.41600 | 33597 ft | 409 kts | 292° |
| 2026-04-21 19:48 | 65.46940 | -36.54450 | 33594 ft | 409 kts | 292° |
| 2026-04-21 19:48 | 65.48922 | -36.67297 | 33610 ft | 408 kts | 292° |
| 2026-04-21 19:49 | 65.50885 | -36.80120 | 33610 ft | 408 kts | 292° |
| 2026-04-21 19:49 | 65.52827 | -36.92886 | 33614 ft | 408 kts | 292° |
| 2026-04-21 19:50 | 65.54770 | -37.05731 | 33619 ft | 408 kts | 292° |
| 2026-04-21 19:50 | 65.56586 | -37.18701 | 33595 ft | 409 kts | 282° |
| 2026-04-21 19:50 | 65.56679 | -37.25510 | 33614 ft | 413 kts | 267° |
| 2026-04-21 19:51 | 65.56399 | -37.32431 | 33596 ft | 416 kts | 268° |
| 2026-04-21 19:51 | 65.55821 | -37.46323 | 33616 ft | 416 kts | 266° |
| 2026-04-21 19:52 | 65.55176 | -37.60200 | 33604 ft | 416 kts | 266° |
| 2026-04-21 19:52 | 65.54507 | -37.74069 | 33605 ft | 415 kts | 266° |
| 2026-04-21 19:53 | 65.53827 | -37.87895 | 33610 ft | 415 kts | 266° |
| 2026-04-21 19:53 | 65.53132 | -38.01731 | 33595 ft | 415 kts | 265° |
| 2026-04-21 19:54 | 65.52429 | -38.15489 | 33604 ft | 416 kts | 265° |
| 2026-04-21 19:54 | 65.51708 | -38.29347 | 33605 ft | 416 kts | 265° |
| 2026-04-21 19:55 | 65.50975 | -38.43169 | 33605 ft | 416 kts | 265° |
| 2026-04-21 19:55 | 65.50230 | -38.56991 | 33604 ft | 416 kts | 265° |
| 2026-04-21 19:56 | 65.49471 | -38.70829 | 33602 ft | 416 kts | 264° |
| 2026-04-21 19:56 | 65.48706 | -38.84525 | 33602 ft | 416 kts | 264° |
| 2026-04-21 19:57 | 65.47923 | -38.98318 | 33597 ft | 416 kts | 264° |
| 2026-04-21 19:57 | 65.47127 | -39.12123 | 33604 ft | 416 kts | 263° |
| 2026-04-21 19:58 | 65.46320 | -39.25884 | 33602 ft | 416 kts | 263° |
| 2026-04-21 19:58 | 65.45500 | -39.39630 | 33603 ft | 414 kts | 263° |
| 2026-04-21 19:59 | 65.44669 | -39.53362 | 33601 ft | 414 kts | 263° |
| 2026-04-21 19:59 | 65.43829 | -39.67029 | 33603 ft | 414 kts | 263° |
| 2026-04-21 20:00 | 65.42984 | -39.80617 | 33602 ft | 414 kts | 263° |
| 2026-04-21 20:00 | 65.42123 | -39.94282 | 33597 ft | 413 kts | 262° |
| 2026-04-21 20:01 | 65.41271 | -40.07938 | 33603 ft | 413 kts | 262° |
| 2026-04-21 20:01 | 65.40418 | -40.21579 | 33603 ft | 413 kts | 262° |
| 2026-04-21 20:02 | 65.39553 | -40.35234 | 33600 ft | 413 kts | 262° |
| 2026-04-21 20:02 | 65.38676 | -40.48859 | 33601 ft | 413 kts | 262° |
| 2026-04-21 20:03 | 65.37786 | -40.62497 | 33601 ft | 413 kts | 261° |
| 2026-04-21 20:03 | 65.36889 | -40.76038 | 33601 ft | 413 kts | 261° |
| 2026-04-21 20:04 | 65.35976 | -40.89632 | 33596 ft | 413 kts | 261° |
| 2026-04-21 20:04 | 65.35056 | -41.03139 | 33592 ft | 409 kts | 260° |
| 2026-04-21 20:05 | 65.34126 | -41.16608 | 33600 ft | 409 kts | 259° |
| 2026-04-21 20:05 | 65.33187 | -41.30028 | 33600 ft | 408 kts | 259° |
| 2026-04-21 20:06 | 65.32237 | -41.43428 | 33600 ft | 408 kts | 259° |
| 2026-04-21 20:06 | 65.31279 | -41.56749 | 33588 ft | 408 kts | 259° |
| 2026-04-21 20:07 | 65.30298 | -41.70216 | 33591 ft | 408 kts | 259° |
| 2026-04-21 20:07 | 65.29318 | -41.83514 | 33581 ft | 408 kts | 258° |
| 2026-04-21 20:08 | 65.28319 | -41.96881 | 33584 ft | 409 kts | 258° |
| 2026-04-21 20:08 | 65.27307 | -42.10264 | 33584 ft | 409 kts | 258° |
| 2026-04-21 20:09 | 65.26284 | -42.23632 | 33547 ft | 408 kts | 258° |
| 2026-04-21 20:09 | 65.25250 | -42.36964 | 33549 ft | 408 kts | 258° |
| 2026-04-21 20:10 | 65.24204 | -42.50296 | 33547 ft | 408 kts | 258° |
| 2026-04-21 20:10 | 65.23153 | -42.63529 | 33512 ft | 408 kts | 258° |
| 2026-04-21 20:11 | 65.22085 | -42.76820 | 33521 ft | 408 kts | 257° |
| 2026-04-21 20:11 | 65.21014 | -42.90015 | 33496 ft | 405 kts | 257° |
| 2026-04-21 20:12 | 65.19930 | -43.03185 | 33461 ft | 403 kts | 257° |
| 2026-04-21 20:12 | 65.18839 | -43.16307 | 33460 ft | 404 kts | 256° |
| 2026-04-21 20:13 | 65.17734 | -43.29427 | 33455 ft | 403 kts | 256° |
| 2026-04-21 20:13 | 65.16622 | -43.42526 | 33428 ft | 404 kts | 257° |
| 2026-04-21 20:14 | 65.15510 | -43.55520 | 33427 ft | 404 kts | 256° |
| 2026-04-21 20:14 | 65.14376 | -43.68629 | 33426 ft | 404 kts | 256° |
| 2026-04-21 20:15 | 65.13172 | -43.81636 | 33401 ft | 401 kts | 255° |
| 2026-04-21 20:15 | 65.11966 | -43.94525 | 33401 ft | 397 kts | 255° |
| 2026-04-21 20:16 | 65.10752 | -44.07416 | 33405 ft | 402 kts | 256° |
| 2026-04-21 20:16 | 65.09534 | -44.20224 | 33366 ft | 395 kts | 255° |
| 2026-04-21 20:17 | 65.08316 | -44.32907 | 33378 ft | 398 kts | 254° |
| 2026-04-21 20:17 | 65.07082 | -44.45616 | 33351 ft | 396 kts | 254° |
| 2026-04-21 20:18 | 65.06036 | -44.56316 | 33368 ft | 395 kts | 253° |
| 2026-04-21 20:18 | 65.04582 | -44.71030 | 33368 ft | 396 kts | 253° |
| 2026-04-21 20:19 | 65.03320 | -44.83668 | 33338 ft | 393 kts | 253° |
| 2026-04-21 20:19 | 65.02045 | -44.96322 | 33350 ft | 395 kts | 253° |
| 2026-04-21 20:20 | 65.00766 | -45.08888 | 33334 ft | 393 kts | 254° |
| 2026-04-21 20:20 | 64.99470 | -45.21531 | 33338 ft | 393 kts | 253° |
| 2026-04-21 20:21 | 64.98175 | -45.34026 | 33328 ft | 396 kts | 253° |
| 2026-04-21 20:21 | 64.96861 | -45.46592 | 33298 ft | 392 kts | 252° |
| 2026-04-21 20:22 | 64.95539 | -45.59138 | 33306 ft | 396 kts | 252° |
| 2026-04-21 20:22 | 64.93521 | -45.78057 | 33296 ft | 398 kts | 252° |
| 2026-04-21 20:23 | 64.92158 | -45.90686 | 33296 ft | 398 kts | 252° |
| 2026-04-21 20:23 | 64.90781 | -46.03338 | 33283 ft | 397 kts | 251° |
| 2026-04-21 20:24 | 64.89399 | -46.15937 | 33283 ft | 399 kts | 252° |
| 2026-04-21 20:24 | 64.88010 | -46.28477 | 33275 ft | 397 kts | 251° |
| 2026-04-21 20:25 | 64.86606 | -46.41053 | 33280 ft | 398 kts | 251° |
| 2026-04-21 20:25 | 64.85191 | -46.53611 | 33277 ft | 398 kts | 251° |
| 2026-04-21 20:26 | 64.83765 | -46.66165 | 33261 ft | 397 kts | 251° |
| 2026-04-21 20:26 | 64.82326 | -46.78726 | 33264 ft | 398 kts | 251° |
| 2026-04-21 20:27 | 64.80880 | -46.91240 | 33258 ft | 397 kts | 251° |
| 2026-04-21 20:27 | 64.79427 | -47.03713 | 33257 ft | 396 kts | 250° |
| 2026-04-21 20:28 | 64.77959 | -47.16208 | 33255 ft | 398 kts | 250° |
| 2026-04-21 20:28 | 64.76482 | -47.28681 | 33257 ft | 397 kts | 250° |
| 2026-04-21 20:29 | 64.75004 | -47.41061 | 33239 ft | 384 kts | 249° |
| 2026-04-21 20:29 | 64.74296 | -47.46965 | 33222 ft | 369 kts | 249° |
| 2026-04-21 20:29 | 64.73606 | -47.52685 | 32967 ft | 362 kts | 249° |
| 2026-04-21 20:30 | 64.73153 | -47.56423 | 32668 ft | 360 kts | 249° |
| 2026-04-21 20:30 | 64.72470 | -47.62055 | 32189 ft | 359 kts | 249° |
| 2026-04-21 20:30 | 64.71568 | -47.69463 | 31563 ft | 357 kts | 249° |
| 2026-04-21 20:30 | 64.70875 | -47.75125 | 31146 ft | 364 kts | 249° |
| 2026-04-21 20:31 | 64.70176 | -47.80822 | 30745 ft | 367 kts | 249° |
| 2026-04-21 20:31 | 64.69708 | -47.84623 | 30464 ft | 367 kts | 249° |
| 2026-04-21 20:31 | 64.69001 | -47.90346 | 29977 ft | 365 kts | 249° |
| 2026-04-21 20:31 | 64.68299 | -47.96017 | 29515 ft | 362 kts | 249° |
| 2026-04-21 20:32 | 64.67590 | -48.01731 | 29093 ft | 360 kts | 249° |
| 2026-04-21 20:32 | 64.66903 | -48.07250 | 28691 ft | 358 kts | 249° |
| 2026-04-21 20:32 | 64.66207 | -48.12824 | 28282 ft | 356 kts | 249° |
| 2026-04-21 20:32 | 64.65515 | -48.18344 | 27889 ft | 354 kts | 249° |
| 2026-04-21 20:33 | 64.64823 | -48.23848 | 27526 ft | 352 kts | 248° |
| 2026-04-21 20:33 | 64.64134 | -48.29312 | 27123 ft | 349 kts | 248° |
| 2026-04-21 20:33 | 64.63450 | -48.34720 | 26740 ft | 347 kts | 248° |
| 2026-04-21 20:33 | 64.62725 | -48.40063 | 26307 ft | 344 kts | 246° |
| 2026-04-21 20:34 | 64.61975 | -48.45348 | 25924 ft | 342 kts | 246° |
| 2026-04-21 20:34 | 64.61234 | -48.50613 | 25587 ft | 340 kts | 246° |
| 2026-04-21 20:34 | 64.60498 | -48.55853 | 25233 ft | 339 kts | 246° |
| 2026-04-21 20:34 | 64.59773 | -48.61009 | 24873 ft | 338 kts | 246° |
| 2026-04-21 20:35 | 64.59041 | -48.66210 | 24518 ft | 337 kts | 246° |
| 2026-04-21 20:35 | 64.58311 | -48.71382 | 24156 ft | 335 kts | 246° |
| 2026-04-21 20:35 | 64.57582 | -48.76521 | 23823 ft | 334 kts | 246° |
| 2026-04-21 20:35 | 64.56855 | -48.81637 | 23392 ft | 333 kts | 246° |
| 2026-04-21 20:36 | 64.56125 | -48.86756 | 22945 ft | 331 kts | 246° |
| 2026-04-21 20:36 | 64.55411 | -48.91756 | 22632 ft | 324 kts | 245° |
| 2026-04-21 20:36 | 64.54701 | -48.96708 | 22300 ft | 322 kts | 245° |
| 2026-04-21 20:36 | 64.53990 | -49.01652 | 21973 ft | 321 kts | 245° |
| 2026-04-21 20:37 | 64.53285 | -49.06547 | 21629 ft | 318 kts | 245° |
| 2026-04-21 20:37 | 64.52581 | -49.11410 | 21318 ft | 316 kts | 245° |
| 2026-04-21 20:37 | 64.51883 | -49.16229 | 20975 ft | 314 kts | 245° |
| 2026-04-21 20:37 | 64.51186 | -49.21023 | 20645 ft | 313 kts | 245° |
| 2026-04-21 20:38 | 64.50489 | -49.25804 | 20316 ft | 311 kts | 244° |
| 2026-04-21 20:38 | 64.49796 | -49.30544 | 19990 ft | 310 kts | 244° |
| 2026-04-21 20:38 | 64.49103 | -49.35273 | 19665 ft | 309 kts | 244° |
| 2026-04-21 20:38 | 64.48413 | -49.39968 | 19345 ft | 308 kts | 244° |
| 2026-04-21 20:39 | 64.47720 | -49.44674 | 19027 ft | 307 kts | 244° |
| 2026-04-21 20:39 | 64.47028 | -49.49353 | 18693 ft | 307 kts | 244° |
| 2026-04-21 20:39 | 64.46342 | -49.53987 | 18365 ft | 307 kts | 244° |
| 2026-04-21 20:39 | 64.45651 | -49.58648 | 18012 ft | 305 kts | 244° |
| 2026-04-21 20:40 | 64.44963 | -49.63268 | 17683 ft | 303 kts | 244° |
| 2026-04-21 20:40 | 64.44276 | -49.67870 | 17369 ft | 300 kts | 244° |
| 2026-04-21 20:40 | 64.43595 | -49.72418 | 17061 ft | 298 kts | 244° |
| 2026-04-21 20:40 | 64.42915 | -49.76950 | 16752 ft | 297 kts | 244° |
| 2026-04-21 20:41 | 64.42236 | -49.81461 | 16437 ft | 297 kts | 244° |
| 2026-04-21 20:41 | 64.41557 | -49.85964 | 16131 ft | 296 kts | 244° |
| 2026-04-21 20:41 | 64.40879 | -49.90452 | 15822 ft | 295 kts | 244° |
| 2026-04-21 20:41 | 64.40200 | -49.94939 | 15530 ft | 294 kts | 243° |
| 2026-04-21 20:42 | 64.39525 | -49.99385 | 15207 ft | 293 kts | 243° |
| 2026-04-21 20:42 | 64.38855 | -50.03827 | 14929 ft | 292 kts | 245° |
| 2026-04-21 20:42 | 64.38565 | -50.08566 | 14568 ft | 305 kts | 262° |
| 2026-04-21 20:42 | 64.38546 | -50.13457 | 14280 ft | 302 kts | 261° |
| 2026-04-21 20:43 | 64.38511 | -50.18238 | 13977 ft | 301 kts | 261° |
| 2026-04-21 20:43 | 64.38477 | -50.23106 | 13655 ft | 299 kts | 260° |
| 2026-04-21 20:43 | 64.38445 | -50.27842 | 13412 ft | 296 kts | 259° |
| 2026-04-21 20:43 | 64.38411 | -50.32599 | 13080 ft | 296 kts | 259° |
| 2026-04-21 20:44 | 64.38378 | -50.37354 | 12771 ft | 294 kts | 259° |
| 2026-04-21 20:44 | 64.38342 | -50.42055 | 12482 ft | 292 kts | 259° |
| 2026-04-21 20:44 | 64.38305 | -50.46743 | 12189 ft | 291 kts | 259° |
| 2026-04-21 20:44 | 64.38267 | -50.51351 | 11921 ft | 289 kts | 258° |
| 2026-04-21 20:45 | 64.38227 | -50.56047 | 11638 ft | 288 kts | 258° |
| 2026-04-21 20:45 | 64.38187 | -50.60618 | 11344 ft | 288 kts | 258° |
| 2026-04-21 20:45 | 64.38145 | -50.65232 | 11067 ft | 287 kts | 258° |
| 2026-04-21 20:45 | 64.38101 | -50.69849 | 10794 ft | 286 kts | 258° |
| 2026-04-21 20:46 | 64.38056 | -50.74452 | 10473 ft | 285 kts | 258° |
| 2026-04-21 20:46 | 64.38010 | -50.79021 | 10235 ft | 285 kts | 258° |
| 2026-04-21 20:46 | 64.37962 | -50.83627 | 9931 ft | 286 kts | 258° |
| 2026-04-21 20:46 | 64.37914 | -50.88156 | 9612 ft | 284 kts | 258° |
| 2026-04-21 20:47 | 64.37864 | -50.92700 | 9358 ft | 282 kts | 259° |
| 2026-04-21 20:47 | 64.37814 | -50.97231 | 9037 ft | 280 kts | 259° |
| 2026-04-21 20:47 | 64.37762 | -51.01722 | 8766 ft | 278 kts | 259° |
| 2026-04-21 20:47 | 64.37709 | -51.06135 | 8514 ft | 278 kts | 259° |
| 2026-04-21 20:48 | 64.37651 | -51.10591 | 8262 ft | 277 kts | 260° |
| 2026-04-21 20:48 | 64.37596 | -51.15059 | 8008 ft | 280 kts | 258° |
| 2026-04-21 20:48 | 64.37541 | -51.19554 | 7710 ft | 277 kts | 258° |
| 2026-04-21 20:48 | 64.37542 | -51.23997 | 7508 ft | 278 kts | 269° |
| 2026-04-21 20:49 | 64.38066 | -51.28343 | 7192 ft | 279 kts | 278° |
| 2026-04-21 20:49 | 64.38668 | -51.32492 | 6758 ft | 268 kts | 274° |
| 2026-04-21 20:49 | 64.39242 | -51.36616 | 6254 ft | 269 kts | 274° |
| 2026-04-21 20:49 | 64.39805 | -51.40692 | 4993 ft | 262 kts | 271° |
| 2026-04-21 20:50 | 64.39894 | -51.44531 | 4653 ft | 212 kts | 248° |
| 2026-04-21 20:50 | 64.39518 | -51.47354 | 4820 ft | 169 kts | 225° |
| 2026-04-21 20:50 | 64.38863 | -51.49350 | 4551 ft | 150 kts | 211° |
| 2026-04-21 20:50 | 64.38148 | -51.51059 | 4309 ft | 155 kts | 216° |
| 2026-04-21 20:51 | 64.37459 | -51.52889 | 4058 ft | 144 kts | 204° |
| 2026-04-21 20:51 | 64.36611 | -51.54050 | 3875 ft | 140 kts | 198° |
| 2026-04-21 20:51 | 64.35735 | -51.55012 | 3689 ft | 139 kts | 195° |
| 2026-04-21 20:51 | 64.34836 | -51.55869 | 3480 ft | 139 kts | 194° |
| 2026-04-21 20:52 | 64.33928 | -51.56653 | 3259 ft | 139 kts | 193° |
| 2026-04-21 20:52 | 64.33012 | -51.57408 | 3052 ft | 140 kts | 193° |
| 2026-04-21 20:52 | 64.32081 | -51.58153 | 2851 ft | 143 kts | 192° |
| 2026-04-21 20:52 | 64.31123 | -51.58892 | 2656 ft | 146 kts | 193° |
| 2026-04-21 20:53 | 64.30163 | -51.59629 | 2432 ft | 145 kts | 193° |
| 2026-04-21 20:53 | 64.29232 | -51.60335 | 2237 ft | 136 kts | 192° |
| 2026-04-21 20:53 | 64.28355 | -51.61000 | 2052 ft | 129 kts | 192° |
| 2026-04-21 20:53 | 64.27506 | -51.61635 | 1866 ft | 128 kts | 192° |
| 2026-04-21 20:54 | 64.26656 | -51.62273 | 1689 ft | 130 kts | 192° |
| 2026-04-21 20:54 | 64.25789 | -51.62919 | 1500 ft | 130 kts | 193° |
| 2026-04-21 20:54 | 64.24959 | -51.63544 | 1309 ft | 120 kts | 192° |
| 2026-04-21 20:54 | 64.24189 | -51.64120 | 1164 ft | 118 kts | 192° |
| 2026-04-21 20:55 | 64.23401 | -51.64735 | 994 ft | 120 kts | 195° |
| 2026-04-21 20:55 | 64.22605 | -51.65456 | 836 ft | 124 kts | 193° |
| 2026-04-21 20:55 | 64.21790 | -51.65984 | 716 ft | 120 kts | 188° |
| 2026-04-21 20:55 | 64.21004 | -51.66548 | 545 ft | 115 kts | 192° |
| 2026-04-21 20:56 | 64.20275 | -51.67077 | 359 ft | 106 kts | 192° |
| 2026-04-21 20:56 | 64.19601 | -51.67600 | 294 ft | 95 kts | 191° |
| 2026-04-21 20:56 | 64.19065 | -51.67952 | 285 ft | 56 kts | 198° |
| 2026-04-21 20:56 | 64.18770 | -51.68172 | 284 ft | 33 kts | 198° |
| 2026-04-21 20:57 | 64.18681 | -51.68221 | 284 ft | 8 kts | 173° |
| 2026-04-21 20:57 | 64.18649 | -51.68140 | 284 ft | 8 kts | 109° |
| 2026-04-21 20:57 | 64.18635 | -51.68036 | 284 ft | 7 kts | 108° |
| 2026-04-21 20:57 | 64.18630 | -51.67999 | 286 ft | 1 kts | 108° |
| 2026-04-21 20:58 | 64.18624 | -51.67962 | 284 ft | 4 kts | 108° |
| 2026-04-21 20:58 | 64.18615 | -51.67897 | 286 ft | 5 kts | 109° |
| 2026-04-21 20:58 | 64.18602 | -51.67835 | 284 ft | 5 kts | 130° |
| 2026-04-21 20:58 | 64.18582 | -51.67799 | 284 ft | 4 kts | 147° |
| 2026-04-21 20:59 | 64.18562 | -51.67770 | 284 ft | 2 kts | 147° |
| 2026-04-21 20:59 | 64.18558 | -51.67764 | 284 ft | 0 kts | 147° |